x

La Perouse Bank (46206) Wave Buoy

6:00pm - Fri 20th Jan 2017 All times are PST. -8 hours from GMT.

  • Sig Wave height 11.5ft
  • Peak Period 14s
  • Wind
    16mph, 18mph gusts
  • Sea Temp 54°f
  • Air Temp 49°f
  • Sea Pressure 985.1mb
  • La Perouse Bank
  • La Perouse Bank

More Historic Weather Station data

Upgrade to MSW Pro to gain access to the past 30 days of data for over 8000 Wavebouys and Weather Stations around the globe.

Join Pro

Comparision Forecast

View Surf forecast
   
Fri 01/20 6:00pm 11.5ft 14s 16 18 mph 985.1mb 54f 49f
5:00pm 11ft 16s 16 20 mph 984.8mb 53f 49f
4:00pm 11ft 15s 18 22 mph 984.5mb 56f 49f
2:00pm 12ft 16s 18 20 mph 983.9mb 57f 48f
1:00pm 12ft 16s 18 25 mph 983.9mb 51f 50f
12:00pm 11ft 16s 18 22 mph 984.5mb 51f 50f
11:00am 11ft 16s 20 27 mph 984.7mb 56f 49f
10:00am 11ft 14s 20 27 mph 985.3mb 52f 49f
9:00am 12ft 16s 20 29 mph 985.6mb 54f 48f
8:00am 14ft 16s 25 34 mph 985.9mb 54f 47f
7:00am 13.5ft 16s 20 25 mph 986.3mb 54f 46f
6:00am 13.5ft 15s 20 25 mph 986.8mb 56f 47f
4:00am  -   -  22
mph
988.8mb 57f 46f
3:00am  -   -  22
mph
- - -
2:00am 15ft 15s 25 31 mph 990.7mb 53f 47f
1:00am 13ft 16s 27 31 mph 991.2mb 53f 47f
12:00am 13ft 13s 25 31 mph 991.8mb 50f 47f
Thu 01/19 11:00pm  -   -  20
mph
992.6mb 54f 48f
10:00pm 13.5ft 14s 18 20 mph 993.2mb 52f 48f
9:00pm 13ft 14s 16 18 mph 993.7mb 53f 48f
8:00pm 12ft 13s 11 16 mph 994.1mb 50f 47f
7:00pm 12.5ft 14s 11 16 mph 994.3mb 52f 47f
6:00pm 12ft 14s 11 16 mph 994.6mb 53f 46f
5:00pm 11.5ft 14s 9 11 mph 994.8mb 51f 47f
4:00pm 11.5ft 13s 11 13 mph 994.9mb 54f 47f
3:00pm 11ft 12s 7 9 mph 994.9mb 57f 48f
2:00pm 12ft 12s 9 11 mph 994.8mb 55f 47f
1:00pm 12ft 10s 7 9 mph 995.1mb 52f 48f
12:00pm 11.5ft 11s 9 11 mph 995.4mb 53f 47f
11:00am 11ft 11s 11 16 mph 995.5mb 51f 48f
10:00am 11ft 12s 7 9 mph 995.3mb 52f 48f
9:00am 11ft 12s 7 9 mph 995mb 54f 47f
8:00am 11.5ft 13s 4 9 mph 994.4mb 53f 47f
7:00am 12.5ft 12s 9 11 mph 993.6mb 52f 47f
6:00am 13.5ft 11s 9 13 mph 993.2mb 53f 47f
5:00am 14.5ft 12s 4 7 mph 992.9mb 50f 47f
3:00am 15.5ft 11s 7 9 mph 992.3mb 54f 47f
2:00am 15.5ft 12s 9 13 mph 991.6mb 50f 47f
1:00am 16ft 11s 11 16 mph 990.8mb 53f 47f
12:00am 14ft 12s 13 16 mph 989.8mb 54f 49f
Wed 01/18 11:00pm 17ft 12s 11 16 mph 989.3mb 53f 49f
10:00pm 15ft 13s 13 16 mph 988.7mb 50f 49f
9:00pm 14.5ft 12s 16 20 mph 987.8mb 54f 49f
8:00pm  -   -  18
mph
- - -
7:00pm 15.5ft 14s 16 18 mph 986.7mb 56f 49f
6:00pm 15ft 13s 18 20 mph 986.6mb 53f 50f
5:00pm 18.5ft 13s 18 22 mph 986.8mb 58f 50f
2:00pm 19.5ft 12s 22 27 mph 986.5mb 51f 50f
1:00pm 22.5ft 12s 22 31 mph 986.1mb 53f 51f
12:00pm 20.5ft 12s 27 36 mph 986mb 51f 51f
11:00am 18.5ft 12s 34 43 mph 984.2mb 53f 50f
10:00am 17ft 12s 36 45 mph 981.9mb 56f 51f
9:00am 16.5ft 13s 31 38 mph 980.7mb 56f 51f
8:00am 17.5ft 11s 29 38 mph 981.5mb 52f 49f
7:00am 15.5ft 12s 25 34 mph 982.8mb 53f 49f
6:00am 17.5ft 12s 16 20 mph 985.6mb 52f 49f
5:00am 18.5ft 12s 13 18 mph 987.6mb 52f 49f
4:00am 17ft 11s 13 18 mph 989.2mb 56f 50f
3:00am 15.5ft 11s 16 18 mph 989.7mb 53f 51f
1:00am 17.5ft 11s 22
mph
989.8mb 53f 51f
12:00am 19ft 12s 22 29 mph 990.2mb 54f 51f
Tue 01/17 11:00pm 18.5ft 12s 25 29 mph 990.1mb 57f 51f
10:00pm 19.5ft 11s 27 31 mph 989.6mb 53f 51f
9:00pm 19.5ft 10s 25 31 mph 988.7mb 53f 51f
8:00pm 19ft 10s 27 34 mph 988.1mb 53f 51f
6:00pm 18.5ft 10s 29 36 mph 987.1mb 55f 51f
5:00pm  -   -  27
mph
987.2mb - 51f
4:00pm 18.5ft 14s 31 38 mph 988.2mb 57f 49f
3:00pm 19ft 14s 34 43 mph 989.3mb 53f 48f
2:00pm 18.5ft 15s 31 40 mph 991.7mb 53f 49f
1:00pm 19ft 14s 29 36 mph 994.5mb 54f 49f
12:00pm 18.5ft 10s 27 34 mph 996.4mb 52f 50f
11:00am  -   -  27
mph
- - -
10:00am 20.5ft 16s 29 36 mph 997.4mb 58f 51f
9:00am 21.5ft 15s 29 36 mph 997mb 52f 51f
8:00am 19ft 17s 31 38 mph 996.3mb 52f 50f
7:00am 20ft 8s 34 40 mph 996.3mb 56f 50f
6:00am 19ft 8s 34 40 mph 997mb 51f 49f
5:00am 18.5ft 8s 34 40 mph 998.3mb 56f 48f
4:00am 16.5ft 17s 34 43 mph 999.8mb 54f 48f